Flight Track Log - Related Links

Times and Time Zones

All times are in EDT time to prevent confusion due to time zone crossing. See the UAL4434 flight status page for this flight to view local times or setup timezone preferences in your user account.

Time Position Orientation Groundspeed Altitude Reporting Facility
EDT Latitude Longitude Course Direction KTS MPH feet Rate Location/Type
Mon 07:05:10 AM 39.2833 -94.6833 84° East 158 182 1,700  Level Kansas City TRACON
Mon 07:05:16 AM 39.2833 -94.6833 84° East 159 183 1,900 1,733 Climbing Kansas City TRACON
Mon 07:06:40 AM 39.2967 -94.5936 79° East 201 231 4,300 1,875 Climbing Kansas City Center
Mon 07:07:40 AM 39.3089 -94.5106 79° East 245 282 6,400 2,400 Climbing Kansas City Center
Mon 07:08:00 AM 39.3880 -94.1383 84° East  Level Estimated
Mon 07:08:40 AM 39.3217 -94.4194 80° East 264 304 9,100  Level Kansas City Center
Mon 07:09:00 AM 39.4101 -93.9942 80° East  Level Estimated
Mon 07:09:41 AM 39.3364 -94.3119 80° East 279 321 11,200  Level Kansas City Center
Mon 07:10:00 AM 39.4225 -93.8481 84° East  Level FlightAware Approximate
Mon 07:10:41 AM 39.3517 -94.2025 80° East 322 371 12,300  Level Kansas City Center
Mon 07:11:42 AM 39.3686 -94.0800 80° East 359 413 13,500 1,190 Climbing Kansas City Center
Mon 07:12:42 AM 39.3861 -93.9508 80° East 380 437 14,700 1,350 Climbing Kansas City Center
Mon 07:13:42 AM 39.4056 -93.7928 81° East 397 457 16,200 1,339 Climbing Kansas City Center
Mon 07:14:43 AM 39.4239 -93.6644 79° East 408 470 17,400 1,091 Climbing Kansas City Center
Mon 07:15:43 AM 39.4419 -93.5175 81° East 416 479 18,400 1,190 Climbing Kansas City Center
Mon 07:16:44 AM 39.4589 -93.3686 82° East 420 483 19,800 1,339 Climbing Kansas City Center
Mon 07:17:44 AM 39.4753 -93.2178 82° East 425 489 21,100 1,388 Climbing Kansas City Center
Mon 07:18:45 AM 39.4972 -93.0394 81° East 423 487 22,600 1,388 Climbing Kansas City Center
Mon 07:19:45 AM 39.5144 -92.8875 82° East 427 491 23,900 1,289 Climbing Kansas City Center
Mon 07:20:46 AM 39.5317 -92.7344 82° East 431 496 25,200 1,289 Climbing Kansas City Center
Mon 07:21:46 AM 39.5500 -92.5803 81° East 435 501 26,500 1,289 Climbing Kansas City Center
Mon 07:22:47 AM 39.5656 -92.4267 82° East 436 502 27,800 1,279 Climbing Kansas City Center
Mon 07:23:48 AM 39.5831 -92.2753 81° East 434 499 29,100 1,240 Climbing Kansas City Center
Mon 07:24:48 AM 39.5994 -92.1242 82° East 431 496 30,300 1,140 Climbing Kansas City Center
Mon 07:25:49 AM 39.6161 -91.9706 82° East 433 498 31,400 984 Climbing Kansas City Center
Mon 07:26:50 AM 39.6314 -91.8172 83° East 434 499 32,300 893 Climbing Kansas City Center
Mon 07:27:50 AM 39.6492 -91.6594 82° East 440 506 33,200 942 Climbing Kansas City Center
Mon 07:28:51 AM 39.6681 -91.4689 83° East 446 513 34,200 836 Climbing Kansas City Center
Mon 07:29:52 AM 39.6867 -91.3025 82° East 455 524 34,900 397 Climbing Kansas City Center
Mon 07:30:52 AM 39.7042 -91.1342 82° East 465 535 35,000 50 Climbing Kansas City Center
Mon 07:31:53 AM 39.7208 -90.9567 83° East 485 558 35,000  Level Kansas City Center
Mon 07:32:54 AM 39.7389 -90.7719 83° East 505 581 35,000  Level Kansas City Center
Mon 07:33:55 AM 39.7567 -90.5958 82° East 520 598 35,000  Level Kansas City Center
Mon 07:34:56 AM 39.7753 -90.3981 83° East 539 620 35,000  Level Kansas City Center
Mon 07:35:56 AM 39.7928 -90.2006 83° East 550 633 35,000  Level Kansas City Center
Mon 07:36:57 AM 39.8097 -90.0047 84° East 550 633 35,000  Level Kansas City Center
Mon 07:37:58 AM 39.8261 -89.8158 83° East 539 620 35,000  Level Kansas City Center
Mon 07:38:59 AM 39.8403 -89.5900 85° East 528 608 35,000  Level Kansas City Center
Mon 07:40:00 AM 39.8406 -89.4006 90° East 527 606 35,000  Level Kansas City Center
Mon 07:41:01 AM 39.8414 -89.2122 90° East 525 604 35,000  Level Kansas City Center
Mon 07:42:01 AM 39.8419 -89.0247 90° East 523 602 35,000  Level Kansas City Center
Mon 07:43:02 AM 39.8419 -88.8369 90° East 522 601 35,000  Level Kansas City Center
Mon 07:44:03 AM 39.8414 -88.6492 90° East 521 600 35,000  Level Kansas City Center
Mon 07:45:04 AM 39.8428 -88.4600 89° East 523 602 35,000  Level Kansas City Center
Mon 07:46:05 AM 39.8433 -88.2683 90° East 528 608 35,000  Level Kansas City Center
Mon 07:47:06 AM 39.8414 -88.0817 91° East 525 604 35,000  Level Kansas City Center
Mon 07:48:07 AM 39.8378 -87.8958 91° East 519 597 35,000  Level Kansas City Center
Mon 07:49:08 AM 39.8353 -87.7067 91° East 518 596 35,000  Level Kansas City Center
Mon 07:50:13 AM 39.8333 -87.4742 91° East 522 601 35,000  Level Indianapolis Center
Mon 07:51:14 AM 39.8306 -87.2853 91° East 524 603 35,000  Level Indianapolis Center
Mon 07:52:16 AM 39.8286 -87.0964 91° East 523 602 35,000  Level Indianapolis Center
Mon 07:53:17 AM 39.8256 -86.9092 91° East 520 598 35,000  Level Indianapolis Center
Mon 07:54:19 AM 39.8214 -86.7211 92° East 521 600 35,000  Level Indianapolis Center
Mon 07:55:20 AM 39.8181 -86.5342 91° East 519 597 35,000  Level Indianapolis Center
Mon 07:56:21 AM 39.8244 -86.3417 87° East 518 596 35,000  Level Indianapolis Center
Mon 07:57:23 AM 39.8592 -86.1619 76° East 515 593 35,000  Level Indianapolis Center
Mon 07:58:24 AM 39.8967 -85.9858 74° East 505 581 35,000  Level Indianapolis Center
Mon 07:59:26 AM 39.9331 -85.8119 75° East 500 575 35,000  Level Indianapolis Center
Mon 08:00:27 AM 39.9758 -85.6044 75° East 497 572 35,000  Level Indianapolis Center
Mon 08:01:29 AM 40.0117 -85.4311 75° East 496 571 35,000  Level Indianapolis Center
Mon 08:02:30 AM 40.0472 -85.2589 75° East 494 568 35,000  Level Indianapolis Center
Mon 08:03:32 AM 40.0814 -85.0886 75° East 489 563 35,000  Level Indianapolis Center
Mon 08:04:33 AM 40.1164 -84.9175 75° East 489 563 35,000  Level Indianapolis Center
Mon 08:05:35 AM 40.1497 -84.7478 76° East 488 562 35,000  Level Indianapolis Center
Mon 08:06:36 AM 40.1828 -84.5778 76° East 485 558 35,000  Level Indianapolis Center
Mon 08:07:38 AM 40.2178 -84.4069 75° East 484 557 35,000  Level Indianapolis Center
Mon 08:08:39 AM 40.2581 -84.2033 75° East 482 555 35,000  Level Indianapolis Center
Mon 08:09:41 AM 40.2944 -84.0358 74° East 478 550 35,000  Level Indianapolis Center
Mon 08:10:43 AM 40.3594 -83.8886 60° Northeast 465 535 35,000  Level Indianapolis Center
Mon 08:11:44 AM 40.4267 -83.7433 59° Northeast 463 533 35,000  Level Indianapolis Center
Mon 08:12:46 AM 40.4928 -83.5964 59° Northeast 465 535 35,000  Level Indianapolis Center
Mon 08:13:48 AM 40.5594 -83.4506 59° Northeast 463 533 35,000  Level Indianapolis Center
Mon 08:14:49 AM 40.6261 -83.3042 59° Northeast 465 535 35,000  Level Indianapolis Center
Mon 08:15:51 AM 40.7003 -83.1364 60° Northeast 462 532 35,000  Level Indianapolis Center
Mon 08:16:53 AM 40.7483 -82.9761 68° East 465 535 35,000  Level Indianapolis Center
Mon 08:17:54 AM 40.7897 -82.8119 72° East 467 537 35,000  Level Indianapolis Center
Mon 08:18:56 AM 40.8319 -82.6497 71° East 465 535 35,000  Level Indianapolis Center
Mon 08:19:57 AM 40.8747 -82.4872 71° East 466 536 35,000 344 Level Indianapolis Center
Mon 08:20:58 AM 40.9142 -82.3228 72° East 464 534 35,700 639 Climbing Cleveland Center
Mon 08:21:59 AM 40.9544 -82.1639 71° East 455 524 36,300 634 Climbing Cleveland Center
Mon 08:23:01 AM 40.9950 -82.0053 71° East 453 521 37,000 339 Climbing Cleveland Center
Mon 08:24:03 AM 41.0342 -81.8458 72° East 454 522 37,000  Level Cleveland Center
Mon 08:25:05 AM 41.0814 -81.6575 72° East 462 532 37,000  Level Cleveland Center
Mon 08:26:07 AM 41.1217 -81.4947 72° East 468 539 37,000  Level Cleveland Center
Mon 08:27:09 AM 41.1622 -81.3300 72° East 471 542 37,000  Level Cleveland Center
Mon 08:28:11 AM 41.2025 -81.1653 72° East 470 541 37,000  Level Cleveland Center
Mon 08:29:13 AM 41.2431 -80.9983 72° East 473 544 37,000  Level Cleveland Center
Mon 08:30:15 AM 41.2894 -80.8006 73° East 476 548 37,000  Level Cleveland Center
Mon 08:31:17 AM 41.3300 -80.6311 72° East 478 550 37,000  Level Cleveland Center
Mon 08:32:19 AM 41.3700 -80.4614 73° East 478 550 37,000  Level Cleveland Center
Mon 08:33:21 AM 41.4092 -80.2928 73° East 474 545 37,000  Level Cleveland Center
Mon 08:34:23 AM 41.4492 -80.1244 72° East 476 548 37,000  Level Cleveland Center
Mon 08:35:25 AM 41.4950 -79.9303 72° East 476 548 37,000  Level Cleveland Center
Mon 08:36:27 AM 41.5322 -79.7614 74° East 477 549 37,000  Level Cleveland Center
Mon 08:37:29 AM 41.5619 -79.5908 77° East 479 551 37,000  Level Cleveland Center
Mon 08:38:31 AM 41.5531 -79.4167 94° East 476 548 37,000  Level Cleveland Center
Mon 08:39:33 AM 41.5403 -79.2411 95° East 477 549 37,000  Level Cleveland Center
Mon 08:40:35 AM 41.5278 -79.0667 95° East 475 547 37,000  Level Cleveland Center
Mon 08:41:37 AM 41.5133 -78.8556 95° East 477 549 37,000  Level Cleveland Center
Mon 08:42:39 AM 41.4992 -78.6792 96° East 476 548 37,000 -242 Level Cleveland Center
Mon 08:43:41 AM 41.4858 -78.5061 96° East 471 542 36,500 -726 Descending Cleveland Center
Mon 08:44:43 AM 41.4731 -78.3333 96° East 468 539 35,500 -1,016 Descending Cleveland Center
Mon 08:45:45 AM 41.4589 -78.1617 96° East 467 537 34,400 -1,515 Descending Cleveland Center
Mon 08:46:26 AM 41.4478 -78.0256 96° East 472 543 32,900 -1,901 Descending New York Center
Mon 08:47:26 AM 41.4333 -77.8494 96° East 472 543 31,200 -950 Descending New York Center
Mon 08:48:26 AM 41.4189 -77.6708 96° East 472 543 31,000 -100 Descending New York Center
Mon 08:49:26 AM 41.4039 -77.4950 96° East 472 543 31,000 -50 Level New York Center
Mon 08:50:26 AM 41.3778 -77.3267 102° East 472 543 30,900 -750 Descending New York Center
Mon 08:51:26 AM 41.3475 -77.1578 103° East 467 537 29,500 -1,350 Descending New York Center
Mon 08:52:26 AM 41.3169 -76.9892 104° East 467 537 28,200 -1,650 Descending New York Center
Mon 08:53:26 AM 41.2842 -76.8175 104° East 472 543 26,200 -2,100 Descending New York Center
Mon 08:54:26 AM 41.2547 -76.6575 104° East 466 536 24,000 -2,050 Descending New York Center
Mon 08:55:26 AM 41.2250 -76.4978 104° East 452 520 22,100 -1,900 Descending New York Center
Mon 08:56:26 AM 41.1967 -76.3464 104° East 440 506 20,200 -1,686 Descending New York Center
Mon 08:57:27 AM 41.1717 -76.2119 104° East 427 491 18,700 -1,100 Descending New York Center
Mon 08:58:26 AM 41.1417 -76.0497 104° East 412 474 18,000 -605 Descending New York Center
Mon 08:59:26 AM 41.1039 -75.9119 110° East 402 463 17,500 -850 Descending New York Center
Mon 09:00:26 AM 41.0681 -75.7744 109° East 397 457 16,300 -750 Descending New York Center
Mon 09:01:26 AM 41.0356 -75.6564 110° East 385 443 16,000 -800 Descending New York Center
Mon 09:02:26 AM 40.9950 -75.5242 112° Southeast 378 435 14,700 -1,550 Descending New York Center
Mon 09:03:26 AM 40.9625 -75.4011 109° East 378 435 12,900 -1,650 Descending New York Center
Mon 09:04:26 AM 40.9294 -75.2864 111° Southeast 354 407 11,400 -1,650 Descending New York Center
Mon 09:05:26 AM 40.8983 -75.1717 110° East 307 353 9,600 -1,600 Descending New York Center
Mon 09:06:26 AM 40.8708 -75.0739 110° East 294 338 8,200 -1,200 Descending New York Center
Mon 09:07:26 AM 40.8367 -74.9811 116° Southeast 288 331 7,200 -600 Descending New York Center
Mon 09:08:26 AM 40.7997 -74.9047 123° Southeast 276 318 7,000 -500 Descending New York Center
Mon 09:09:26 AM 40.7592 -74.8119 120° Southeast 281 323 6,200 -500 Descending New York Center
Mon 09:10:26 AM 40.7164 -74.7164 121° Southeast 281 323 6,000 -500 Descending New York Center
Mon 09:11:26 AM 40.6817 -74.6406 121° Southeast 281 323 5,200 -500 Descending New York Center
Mon 09:12:26 AM 40.6342 -74.5586 127° Southeast 271 312 5,000 -200 Descending New York Center
Mon 09:13:26 AM 40.5925 -74.4933 130° Southeast 259 298 4,800 -550 Descending New York Center
Mon 09:14:26 AM 40.5428 -74.4169 131° Southeast 259 298 3,900 -850 Descending New York Center
Mon 09:15:26 AM 40.5114 -74.3581 125° Southeast 237 273 3,100 -400 Descending New York Center
Mon 09:16:26 AM 40.5053 -74.2811 96° East 185 213 3,100 -150 Level New York Center
Mon 09:17:26 AM 40.5561 -74.2511 24° Northeast 160 184 2,800 -650 Descending New York Center
Mon 09:18:26 AM 40.6072 -74.2181 26° Northeast 181 208 1,800 -900 Descending New York Center
Mon 09:19:26 AM 40.6369 -74.1978 27° Northeast 159 183 1,000 -700 Descending New York Center
Mon 09:20:26 AM 40.6772 -74.1750 23° Northeast 142 163 400 -600 Descending New York Center

Login

Don't have an account? Register now (free) for customized features, flight alerts, and more!